createdAt,value
2023-03-25T00:02:27.543Z,17.82
2023-03-25T00:05:29.620Z,17.83
2023-03-25T00:08:32.383Z,17.81
2023-03-25T00:11:34.423Z,17.79
2023-03-25T00:14:36.397Z,17.78
2023-03-25T00:17:38.799Z,17.71
2023-03-25T00:20:41.537Z,17.70
2023-03-25T00:23:43.477Z,17.76
2023-03-25T00:26:46.281Z,17.75
2023-03-25T00:29:48.349Z,17.68
2023-03-25T00:32:52.849Z,17.66
2023-03-25T00:35:59.449Z,17.65
2023-03-25T00:39:01.502Z,17.61
2023-03-25T00:42:03.669Z,17.58
2023-03-25T00:45:06.505Z,17.57
2023-03-25T00:48:08.484Z,17.54
2023-03-25T00:51:14.520Z,17.53
2023-03-25T00:54:17.132Z,17.53
2023-03-25T00:57:19.039Z,17.47
2023-03-25T01:00:21.042Z,17.44
2023-03-25T01:03:24.324Z,17.43
2023-03-25T01:06:29.111Z,17.36
2023-03-25T01:09:31.409Z,17.40
2023-03-25T01:12:34.199Z,17.37
2023-03-25T01:15:36.244Z,17.35
2023-03-25T01:18:38.910Z,17.36
2023-03-25T01:21:41.043Z,17.34
2023-03-25T01:24:43.274Z,17.35
2023-03-25T01:27:46.070Z,17.37
2023-03-25T01:30:48.172Z,17.33
2023-03-25T01:33:50.196Z,17.30
2023-03-25T01:36:56.015Z,17.27
2023-03-25T01:39:58.035Z,17.25
2023-03-25T01:43:00.104Z,17.28
2023-03-25T01:46:02.374Z,17.27
2023-03-25T01:49:07.427Z,17.24
2023-03-25T01:52:11.802Z,17.20
2023-03-25T01:55:14.219Z,17.14
2023-03-25T01:58:18.460Z,17.09
2023-03-25T02:01:22.523Z,17.09
2023-03-25T02:04:59.219Z,17.12
2023-03-25T02:08:03.502Z,17.05
2023-03-25T02:11:06.962Z,16.97
2023-03-25T02:14:11.218Z,16.95
2023-03-25T02:17:18.892Z,16.93
2023-03-25T02:20:23.864Z,16.92
2023-03-25T02:23:44.819Z,16.84
2023-03-25T02:26:56.559Z,16.75
2023-03-25T02:30:13.691Z,16.75
2023-03-25T02:33:27.817Z,16.77
2023-03-25T02:36:48.876Z,16.73
2023-03-25T02:39:55.001Z,16.73
2023-03-25T02:43:15.903Z,16.70
2023-03-25T02:46:18.724Z,16.70
2023-03-25T02:49:25.941Z,16.64
2023-03-25T02:52:29.940Z,16.59
2023-03-25T02:55:33.842Z,16.58
2023-03-25T02:58:36.158Z,16.49
2023-03-25T03:01:38.676Z,16.42
2023-03-25T03:04:50.778Z,16.40
2023-03-25T03:07:57.711Z,16.42
2023-03-25T03:11:10.945Z,16.39
2023-03-25T03:14:19.253Z,16.38
2023-03-25T03:17:22.413Z,16.37
2023-03-25T03:20:37.450Z,16.42
2023-03-25T03:23:42.156Z,16.55
2023-03-25T03:26:53.441Z,16.54
2023-03-25T03:30:04.591Z,16.54
2023-03-25T03:33:28.071Z,16.61
2023-03-25T03:36:32.430Z,16.61
2023-03-25T03:39:36.251Z,16.62
2023-03-25T03:42:41.891Z,16.53
2023-03-25T03:45:46.693Z,16.48
2023-03-25T03:48:52.548Z,16.36
2023-03-25T03:51:59.037Z,16.38
2023-03-25T03:55:03.153Z,16.38
2023-03-25T03:58:23.623Z,16.39
2023-03-25T04:01:28.162Z,16.38
2023-03-25T04:04:30.428Z,16.37
2023-03-25T04:07:57.149Z,16.33
2023-03-25T04:11:03.916Z,16.40
2023-03-25T04:14:07.639Z,16.51
2023-03-25T04:17:09.714Z,16.60
2023-03-25T04:20:15.772Z,16.44
2023-03-25T04:23:17.725Z,16.48
2023-03-25T04:26:20.071Z,16.41
2023-03-25T04:29:21.908Z,16.75
2023-03-25T04:32:24.406Z,17.21
2023-03-25T04:35:26.872Z,17.65
2023-03-25T04:38:29.781Z,17.78
2023-03-25T04:41:33.750Z,17.68
2023-03-25T04:44:39.398Z,17.72
2023-03-25T04:47:47.347Z,17.44
2023-03-25T04:50:51.885Z,17.26
2023-03-25T04:53:53.895Z,17.23
2023-03-25T04:56:56.558Z,17.12
2023-03-25T04:59:58.449Z,17.20
2023-03-25T05:03:02.104Z,17.20
2023-03-25T05:06:04.301Z,17.26
2023-03-25T05:09:07.234Z,17.28
2023-03-25T05:12:11.553Z,17.26
2023-03-25T05:15:14.218Z,17.20
2023-03-25T05:18:16.865Z,17.18
2023-03-25T05:21:18.858Z,17.18
2023-03-25T05:24:20.855Z,17.26
2023-03-25T05:27:22.818Z,17.24
2023-03-25T05:30:24.841Z,17.23
2023-03-25T05:33:27.256Z,17.23
2023-03-25T05:36:29.849Z,17.32
2023-03-25T05:39:31.696Z,17.29
2023-03-25T05:42:34.982Z,17.33
2023-03-25T05:45:38.224Z,17.37
2023-03-25T05:48:41.547Z,17.44
2023-03-25T05:51:45.332Z,17.38
2023-03-25T05:54:51.924Z,17.35
2023-03-25T05:57:54.129Z,17.42
2023-03-25T06:00:56.045Z,17.47
2023-03-25T06:04:01.157Z,17.45
2023-03-25T06:07:04.287Z,17.37
2023-03-25T06:10:06.515Z,17.36
2023-03-25T06:13:08.592Z,17.38
2023-03-25T06:16:10.682Z,17.36
2023-03-25T06:19:12.724Z,17.40
2023-03-25T06:22:15.012Z,17.40
2023-03-25T06:25:19.192Z,17.43
2023-03-25T06:28:21.328Z,17.40
2023-03-25T06:31:33.990Z,17.53
2023-03-25T06:34:36.461Z,17.63
2023-03-25T06:37:39.054Z,17.78
2023-03-25T06:40:47.941Z,17.98
2023-03-25T06:43:50.063Z,18.13
2023-03-25T06:47:10.334Z,18.10
2023-03-25T06:50:18.492Z,18.04
2023-03-25T06:53:20.603Z,19.55
2023-03-25T06:56:22.646Z,22.19
2023-03-25T06:59:25.103Z,23.62
2023-03-25T07:02:28.347Z,22.49
2023-03-25T07:05:30.404Z,20.99
2023-03-25T07:08:32.626Z,19.98
2023-03-25T07:11:35.128Z,19.74
2023-03-25T07:14:37.068Z,20.07
2023-03-25T07:17:39.305Z,20.29
2023-03-25T07:20:46.186Z,20.34
2023-03-25T07:23:48.963Z,19.75
2023-03-25T07:26:51.030Z,19.26
2023-03-25T07:29:56.054Z,19.06
2023-03-25T07:32:58.268Z,19.05
2023-03-25T07:36:00.384Z,19.07
2023-03-25T07:39:02.452Z,19.14
2023-03-25T07:42:05.667Z,19.24
2023-03-25T07:45:43.615Z,19.46
2023-03-25T07:48:46.999Z,19.64
2023-03-25T07:51:48.913Z,19.66
2023-03-25T07:54:51.064Z,19.62
2023-03-25T07:57:53.083Z,19.55
2023-03-25T08:00:56.743Z,19.53
2023-03-25T08:03:58.708Z,19.61
2023-03-25T08:07:01.026Z,19.79
2023-03-25T08:10:02.955Z,19.88
2023-03-25T08:13:06.979Z,19.94
2023-03-25T08:16:12.441Z,20.19
2023-03-25T08:19:14.635Z,20.42
2023-03-25T08:22:16.609Z,20.75
2023-03-25T08:25:18.930Z,21.08
2023-03-25T08:28:23.367Z,21.45
2023-03-25T08:31:26.781Z,21.79
2023-03-25T08:34:30.053Z,21.99
2023-03-25T08:37:35.460Z,22.21
2023-03-25T08:40:37.454Z,22.32
2023-03-25T08:43:39.486Z,22.28
2023-03-25T08:46:41.473Z,22.25
2023-03-25T08:49:43.519Z,22.30
2023-03-25T08:52:46.185Z,22.35
2023-03-25T08:55:51.473Z,22.37
2023-03-25T08:58:53.707Z,22.39
2023-03-25T09:01:57.205Z,22.39
2023-03-25T09:05:00.422Z,22.43
2023-03-25T09:08:02.420Z,22.47
2023-03-25T09:11:04.420Z,22.47
2023-03-25T09:14:06.430Z,22.45
2023-03-25T09:17:10.267Z,22.38
2023-03-25T09:20:12.605Z,22.37
2023-03-25T09:23:17.236Z,22.38
2023-03-25T09:26:19.714Z,22.35
2023-03-25T09:29:23.854Z,22.29
2023-03-25T09:32:25.963Z,22.32
2023-03-25T09:35:27.893Z,22.32
2023-03-25T09:38:29.897Z,22.35
2023-03-25T09:41:47.137Z,22.35
2023-03-25T09:45:11.483Z,22.34
2023-03-25T09:48:29.158Z,22.33
2023-03-25T09:55:03.129Z,22.37
2023-03-25T09:58:29.141Z,22.34
2023-03-25T10:01:37.780Z,22.37
2023-03-25T10:04:48.200Z,22.36
2023-03-25T10:08:01.205Z,22.35
2023-03-25T10:11:21.870Z,22.31
2023-03-25T10:14:37.578Z,23.05
2023-03-25T10:17:56.886Z,23.64
2023-03-25T10:21:01.683Z,23.86
2023-03-25T10:24:25.139Z,24.05
2023-03-25T10:27:53.872Z,24.18
2023-03-25T10:30:56.563Z,24.29
2023-03-25T10:34:01.624Z,24.29
2023-03-25T10:37:12.711Z,24.29
2023-03-25T10:40:27.280Z,24.30
2023-03-25T10:43:32.152Z,24.24
2023-03-25T10:46:49.679Z,24.20
2023-03-25T10:49:52.507Z,24.08
2023-03-25T10:54:14.208Z,24.00
2023-03-25T10:57:22.421Z,23.98
2023-03-25T11:00:26.544Z,23.97
2023-03-25T11:03:35.604Z,23.92
2023-03-25T11:06:46.048Z,23.83
2023-03-25T11:09:53.575Z,23.77
2023-03-25T11:12:58.676Z,23.71
2023-03-25T11:16:05.527Z,23.65
2023-03-25T11:19:25.592Z,23.61
2023-03-25T11:22:32.011Z,23.57
2023-03-25T11:25:42.061Z,23.53
2023-03-25T11:29:06.673Z,23.49
2023-03-25T11:32:22.986Z,23.58
2023-03-25T11:35:29.944Z,23.79
2023-03-25T11:38:36.774Z,23.97
2023-03-25T11:41:38.752Z,24.14
2023-03-25T11:44:41.416Z,24.32
2023-03-25T11:47:43.909Z,24.46
2023-03-25T11:50:57.290Z,24.54
2023-03-25T11:54:00.666Z,24.53
2023-03-25T11:57:10.195Z,24.53
2023-03-25T12:00:21.019Z,24.47
2023-03-25T12:03:26.836Z,24.45
2023-03-25T12:06:30.234Z,24.42
2023-03-25T12:09:32.249Z,24.34
2023-03-25T12:12:55.273Z,24.23
2023-03-25T12:16:03.279Z,24.16
2023-03-25T12:19:28.276Z,24.09
2023-03-25T12:22:45.857Z,24.04
2023-03-25T12:25:57.197Z,24.01
2023-03-25T12:28:59.074Z,23.99
2023-03-25T12:32:01.565Z,23.98
2023-03-25T12:35:14.516Z,23.93
2023-03-25T12:38:28.652Z,23.88
2023-03-25T12:41:49.008Z,23.85
2023-03-25T12:44:59.674Z,23.79
2023-03-25T12:48:07.647Z,23.89
2023-03-25T12:51:15.331Z,23.92
2023-03-25T12:54:29.175Z,23.89
2023-03-25T12:57:43.071Z,23.89
2023-03-25T13:00:45.022Z,23.84
2023-03-25T13:04:05.772Z,23.85
2023-03-25T13:07:12.139Z,23.86
2023-03-25T13:10:22.236Z,23.84
2023-03-25T13:13:26.149Z,23.81
2023-03-25T13:16:35.936Z,23.74
2023-03-25T13:19:41.342Z,23.64
2023-03-25T13:22:47.149Z,23.58
2023-03-25T13:25:49.157Z,23.45
2023-03-25T13:28:50.953Z,23.58
2023-03-25T13:31:54.065Z,23.89
2023-03-25T13:35:02.901Z,24.09
2023-03-25T13:38:10.651Z,24.27
2023-03-25T13:41:17.733Z,24.41
2023-03-25T13:44:27.564Z,24.54
2023-03-25T13:47:29.601Z,24.69
2023-03-25T13:50:32.738Z,24.98
2023-03-25T13:53:46.653Z,24.77
2023-03-25T13:57:13.814Z,24.46
2023-03-25T14:00:34.599Z,24.23
2023-03-25T14:04:09.411Z,24.01
2023-03-25T14:07:17.165Z,23.83
2023-03-25T14:10:28.407Z,23.76
2023-03-25T14:13:32.809Z,23.65
2023-03-25T14:16:44.293Z,23.57
2023-03-25T14:19:55.366Z,23.49
2023-03-25T14:22:59.470Z,23.52
2023-03-25T14:26:05.360Z,23.58
2023-03-25T14:29:21.516Z,23.54
2023-03-25T14:32:23.727Z,23.57
2023-03-25T14:35:35.138Z,23.54
2023-03-25T14:38:53.674Z,23.50
2023-03-25T14:42:02.570Z,23.37
2023-03-25T14:45:26.869Z,23.35
2023-03-25T14:48:30.789Z,23.29
2023-03-25T14:51:37.435Z,23.29
2023-03-25T14:54:41.547Z,23.28
2023-03-25T14:57:44.456Z,23.29
2023-03-25T15:00:55.221Z,23.12
2023-03-25T15:04:29.556Z,23.03
2023-03-25T15:07:39.583Z,22.94
2023-03-25T15:10:43.301Z,22.85
2023-03-25T15:13:53.043Z,22.77
2023-03-25T15:16:57.178Z,22.68
2023-03-25T15:19:59.137Z,22.56
2023-03-25T15:23:19.583Z,22.47
2023-03-25T15:26:24.329Z,22.34
2023-03-25T15:29:29.060Z,22.31
2023-03-25T15:32:47.350Z,22.26
2023-03-25T15:36:02.273Z,22.20
2023-03-25T15:39:06.129Z,22.15
2023-03-25T15:42:10.987Z,22.00
2023-03-25T15:45:31.481Z,21.94
2023-03-25T15:48:53.694Z,21.93
2023-03-25T15:52:13.712Z,21.90
2023-03-25T15:55:19.592Z,21.86
2023-03-25T15:58:25.754Z,21.75
2023-03-25T16:01:38.812Z,21.68
2023-03-25T16:04:46.787Z,21.57
2023-03-25T16:07:49.357Z,21.49
2023-03-25T16:10:51.540Z,21.49
2023-03-25T16:14:08.494Z,21.44
2023-03-25T16:17:12.608Z,21.42
2023-03-25T16:20:19.364Z,21.38
2023-03-25T16:23:23.324Z,21.27
2023-03-25T16:26:38.913Z,21.24
2023-03-25T16:29:47.836Z,21.23
2023-03-25T16:32:50.266Z,21.18
2023-03-25T16:36:04.967Z,21.08
2023-03-25T16:39:10.102Z,21.03
2023-03-25T16:42:21.256Z,20.93
2023-03-25T16:45:23.375Z,20.82
2023-03-25T16:48:33.675Z,20.72
2023-03-25T16:51:38.093Z,20.62
2023-03-25T16:54:47.193Z,20.56
2023-03-25T16:57:49.336Z,20.47
2023-03-25T17:00:53.597Z,20.44
2023-03-25T17:04:08.017Z,20.47
2023-03-25T17:07:14.599Z,20.49
2023-03-25T17:10:22.143Z,20.49
2023-03-25T17:13:29.910Z,20.56
2023-03-25T17:16:32.863Z,20.68
2023-03-25T17:19:39.084Z,20.60
2023-03-25T17:22:41.084Z,20.51
2023-03-25T17:25:59.479Z,20.50
2023-03-25T17:29:06.410Z,20.46
2023-03-25T17:32:17.108Z,20.41
2023-03-25T17:35:27.702Z,20.37
2023-03-25T17:38:34.070Z,20.34
2023-03-25T17:41:37.777Z,20.31
2023-03-25T17:44:41.327Z,20.25
2023-03-25T17:47:43.415Z,20.19
2023-03-25T17:50:52.817Z,20.19
2023-03-25T17:53:54.920Z,20.19
2023-03-25T17:56:59.002Z,20.23
2023-03-25T18:00:01.066Z,20.40
2023-03-25T18:03:19.115Z,20.65
2023-03-25T18:06:21.677Z,20.76
2023-03-25T18:09:24.590Z,20.86
2023-03-25T18:12:27.229Z,20.94
2023-03-25T18:15:29.308Z,20.98
2023-03-25T18:18:32.112Z,20.91
2023-03-25T18:21:34.236Z,20.86
2023-03-25T18:24:36.375Z,20.91
2023-03-25T18:27:43.828Z,20.96
2023-03-25T18:30:51.014Z,20.89
2023-03-25T18:33:54.302Z,20.65
2023-03-25T18:36:56.489Z,20.50
2023-03-25T18:39:58.743Z,20.36
2023-03-25T18:43:00.806Z,20.27
2023-03-25T18:46:04.416Z,20.23
2023-03-25T18:49:16.917Z,20.23
2023-03-25T18:52:18.788Z,20.20
2023-03-25T18:55:20.754Z,20.17
2023-03-25T18:58:23.925Z,20.19
2023-03-25T19:01:26.798Z,20.24
2023-03-25T19:04:29.709Z,20.22
2023-03-25T19:07:31.614Z,20.16
2023-03-25T19:10:34.606Z,20.14
2023-03-25T19:13:37.017Z,20.11
2023-03-25T19:16:39.056Z,20.06
2023-03-25T19:19:41.392Z,20.00
2023-03-25T19:22:43.550Z,19.97
2023-03-25T19:25:46.672Z,19.94
2023-03-25T19:28:48.774Z,19.93
2023-03-25T19:31:50.882Z,19.90
2023-03-25T19:34:56.709Z,19.78
2023-03-25T19:37:58.770Z,19.77
2023-03-25T19:41:06.440Z,19.77
2023-03-25T19:44:10.566Z,19.81
2023-03-25T19:47:12.997Z,19.80
2023-03-25T19:50:17.694Z,19.79
2023-03-25T19:53:19.764Z,19.76
2023-03-25T19:56:22.076Z,19.76
2023-03-25T19:59:24.041Z,19.71
2023-03-25T20:02:26.282Z,19.70
2023-03-25T20:05:31.769Z,19.66
2023-03-25T20:08:34.512Z,19.58
2023-03-25T20:11:36.531Z,19.39
2023-03-25T20:15:51.648Z,19.35
2023-03-25T20:19:06.350Z,19.38
2023-03-25T20:22:24.261Z,19.40
2023-03-25T20:25:26.786Z,19.38
2023-03-25T20:28:32.112Z,19.28
2023-03-25T20:31:34.382Z,19.17
2023-03-25T20:34:38.259Z,19.14
2023-03-25T20:37:41.316Z,19.16
2023-03-25T20:40:45.241Z,19.15
2023-03-25T20:43:47.296Z,19.13
2023-03-25T20:46:50.560Z,19.10
2023-03-25T20:49:52.692Z,19.00
2023-03-25T20:52:54.728Z,18.93
2023-03-25T20:55:57.146Z,18.89
2023-03-25T20:58:59.100Z,18.88
2023-03-25T21:02:01.177Z,18.88
2023-03-25T21:05:03.736Z,18.88
2023-03-25T21:08:06.336Z,18.92
2023-03-25T21:11:08.336Z,18.88
2023-03-25T21:14:11.747Z,18.81
2023-03-25T21:17:13.693Z,18.85
2023-03-25T21:20:15.727Z,18.89
2023-03-25T21:23:20.366Z,18.87
2023-03-25T21:26:22.995Z,18.87
2023-03-25T21:29:24.936Z,18.82
2023-03-25T21:32:27.089Z,18.80
2023-03-25T21:35:29.436Z,18.77
2023-03-25T21:38:31.573Z,18.75
2023-03-25T21:41:34.069Z,18.71
2023-03-25T21:44:35.919Z,18.69
2023-03-25T21:47:38.035Z,18.63
2023-03-25T21:50:40.127Z,18.60
2023-03-25T21:53:46.505Z,18.55
2023-03-25T21:56:52.095Z,18.57
2023-03-25T21:59:55.373Z,18.60
2023-03-25T22:02:58.721Z,18.61
2023-03-25T22:06:08.427Z,18.59
2023-03-25T22:09:10.394Z,18.59
2023-03-25T22:12:12.308Z,18.55
2023-03-25T22:15:14.189Z,18.50
2023-03-25T22:18:16.087Z,18.45
2023-03-25T22:21:19.735Z,18.44
2023-03-25T22:24:21.696Z,18.38
2023-03-25T22:27:23.637Z,18.34
2023-03-25T22:30:25.494Z,18.29
2023-03-25T22:33:27.559Z,18.26
2023-03-25T22:36:31.000Z,18.22
2023-03-25T22:39:32.988Z,18.26
2023-03-25T22:42:38.792Z,18.22
2023-03-25T22:45:40.885Z,18.15
2023-03-25T22:48:42.949Z,18.10
2023-03-25T22:51:44.870Z,18.24
2023-03-25T22:54:46.861Z,18.47
2023-03-25T22:57:49.425Z,18.65
2023-03-25T23:00:51.595Z,18.73
2023-03-25T23:03:53.957Z,18.66
2023-03-25T23:07:05.027Z,18.49
2023-03-25T23:10:10.192Z,18.44
2023-03-25T23:13:12.154Z,18.36
2023-03-25T23:16:15.794Z,18.25
2023-03-25T23:19:17.806Z,18.15
2023-03-25T23:22:20.063Z,18.13
2023-03-25T23:25:21.975Z,18.13
2023-03-25T23:28:27.029Z,18.21
2023-03-25T23:31:34.303Z,18.09
2023-03-25T23:34:36.793Z,18.01
2023-03-25T23:37:41.685Z,18.01
2023-03-25T23:40:43.602Z,18.02
2023-03-25T23:43:46.830Z,17.98
2023-03-25T23:46:51.294Z,18.08
2023-03-25T23:49:58.027Z,18.13
2023-03-25T23:53:01.679Z,18.10
2023-03-25T23:56:03.857Z,18.03
2023-03-25T23:59:06.797Z,18.02
